sensor_id;sensor_type;location;lat;lon;timestamp;P1;durP1;ratioP1;P2;durP2;ratioP2
68140;SDS011;54941;52.220;104.306;2023-10-31T00:00:44;13.68;;;6.22;;
68140;SDS011;54941;52.220;104.306;2023-10-31T00:03:11;16.17;;;6.68;;
68140;SDS011;54941;52.220;104.306;2023-10-31T00:05:37;10.95;;;6.25;;
68140;SDS011;54941;52.220;104.306;2023-10-31T00:08:04;10.65;;;6.30;;
68140;SDS011;54941;52.220;104.306;2023-10-31T00:10:30;14.45;;;6.93;;
68140;SDS011;54941;52.220;104.306;2023-10-31T00:12:57;11.18;;;6.18;;
68140;SDS011;54941;52.220;104.306;2023-10-31T00:15:23;13.82;;;6.60;;
68140;SDS011;54941;52.220;104.306;2023-10-31T00:17:51;13.02;;;7.20;;
68140;SDS011;54941;52.220;104.306;2023-10-31T00:20:17;13.75;;;7.68;;
68140;SDS011;54941;52.220;104.306;2023-10-31T00:22:44;16.80;;;7.20;;
68140;SDS011;54941;52.220;104.306;2023-10-31T00:25:10;14.13;;;7.65;;
68140;SDS011;54941;52.220;104.306;2023-10-31T00:27:37;17.90;;;8.32;;
68140;SDS011;54941;52.220;104.306;2023-10-31T00:30:03;17.77;;;9.30;;
68140;SDS011;54941;52.220;104.306;2023-10-31T00:32:31;17.63;;;9.88;;
68140;SDS011;54941;52.220;104.306;2023-10-31T00:34:59;29.75;;;9.35;;
68140;SDS011;54941;52.220;104.306;2023-10-31T00:37:25;16.13;;;9.13;;
68140;SDS011;54941;52.220;104.306;2023-10-31T00:39:52;14.45;;;7.65;;
68140;SDS011;54941;52.220;104.306;2023-10-31T00:42:18;18.98;;;8.73;;
68140;SDS011;54941;52.220;104.306;2023-10-31T00:44:45;15.70;;;9.45;;
68140;SDS011;54941;52.220;104.306;2023-10-31T00:47:11;20.40;;;8.48;;
68140;SDS011;54941;52.220;104.306;2023-10-31T00:49:37;15.82;;;8.32;;
68140;SDS011;54941;52.220;104.306;2023-10-31T00:52:05;17.08;;;8.82;;
68140;SDS011;54941;52.220;104.306;2023-10-31T00:54:32;20.25;;;10.35;;
68140;SDS011;54941;52.220;104.306;2023-10-31T00:56:58;19.33;;;9.13;;
68140;SDS011;54941;52.220;104.306;2023-10-31T00:59:25;19.60;;;9.38;;
68140;SDS011;54941;52.220;104.306;2023-10-31T01:01:51;24.15;;;9.93;;
68140;SDS011;54941;52.220;104.306;2023-10-31T01:04:17;22.05;;;10.90;;
68140;SDS011;54941;52.220;104.306;2023-10-31T01:06:44;19.33;;;10.48;;
68140;SDS011;54941;52.220;104.306;2023-10-31T01:09:12;20.55;;;9.50;;
68140;SDS011;54941;52.220;104.306;2023-10-31T01:11:38;19.77;;;9.50;;
68140;SDS011;54941;52.220;104.306;2023-10-31T01:14:05;20.95;;;9.05;;
68140;SDS011;54941;52.220;104.306;2023-10-31T01:16:31;21.33;;;10.40;;
68140;SDS011;54941;52.220;104.306;2023-10-31T01:18:57;17.92;;;9.05;;
68140;SDS011;54941;52.220;104.306;2023-10-31T01:21:24;18.52;;;8.88;;
68140;SDS011;54941;52.220;104.306;2023-10-31T01:23:50;16.48;;;9.02;;
68140;SDS011;54941;52.220;104.306;2023-10-31T01:26:18;19.58;;;11.27;;
68140;SDS011;54941;52.220;104.306;2023-10-31T01:28:48;16.83;;;9.02;;
68140;SDS011;54941;52.220;104.306;2023-10-31T01:31:16;19.90;;;10.45;;
68140;SDS011;54941;52.220;104.306;2023-10-31T01:33:42;19.85;;;10.65;;
68140;SDS011;54941;52.220;104.306;2023-10-31T01:36:12;22.48;;;11.45;;
68140;SDS011;54941;52.220;104.306;2023-10-31T01:38:38;20.23;;;10.57;;
68140;SDS011;54941;52.220;104.306;2023-10-31T01:41:04;20.85;;;11.55;;
68140;SDS011;54941;52.220;104.306;2023-10-31T01:43:33;23.65;;;10.10;;
68140;SDS011;54941;52.220;104.306;2023-10-31T01:46:00;25.05;;;11.05;;
68140;SDS011;54941;52.220;104.306;2023-10-31T01:48:27;22.10;;;11.57;;
68140;SDS011;54941;52.220;104.306;2023-10-31T01:50:55;20.35;;;10.52;;
68140;SDS011;54941;52.220;104.306;2023-10-31T01:53:23;24.65;;;11.68;;
68140;SDS011;54941;52.220;104.306;2023-10-31T01:55:51;26.75;;;13.35;;
68140;SDS011;54941;52.220;104.306;2023-10-31T01:58:18;23.52;;;12.30;;
68140;SDS011;54941;52.220;104.306;2023-10-31T02:00:50;28.80;;;15.02;;
68140;SDS011;54941;52.220;104.306;2023-10-31T02:03:17;28.08;;;14.32;;
68140;SDS011;54941;52.220;104.306;2023-10-31T02:05:43;28.08;;;13.95;;
68140;SDS011;54941;52.220;104.306;2023-10-31T02:08:10;34.88;;;13.68;;
68140;SDS011;54941;52.220;104.306;2023-10-31T02:10:37;29.13;;;13.85;;
68140;SDS011;54941;52.220;104.306;2023-10-31T02:13:10;32.80;;;14.40;;
68140;SDS011;54941;52.220;104.306;2023-10-31T02:15:37;27.00;;;12.60;;
68140;SDS011;54941;52.220;104.306;2023-10-31T02:18:05;27.35;;;13.10;;
68140;SDS011;54941;52.220;104.306;2023-10-31T02:20:54;26.30;;;14.30;;
68140;SDS011;54941;52.220;104.306;2023-10-31T02:23:21;28.75;;;12.82;;
68140;SDS011;54941;52.220;104.306;2023-10-31T02:25:48;27.40;;;14.55;;
68140;SDS011;54941;52.220;104.306;2023-10-31T02:28:14;32.35;;;15.70;;
68140;SDS011;54941;52.220;104.306;2023-10-31T02:30:41;26.58;;;13.63;;
68140;SDS011;54941;52.220;104.306;2023-10-31T02:33:07;28.15;;;15.35;;
68140;SDS011;54941;52.220;104.306;2023-10-31T02:35:35;29.00;;;13.60;;
68140;SDS011;54941;52.220;104.306;2023-10-31T02:38:02;33.47;;;15.95;;
68140;SDS011;54941;52.220;104.306;2023-10-31T02:40:30;31.70;;;16.67;;
68140;SDS011;54941;52.220;104.306;2023-10-31T02:42:56;32.28;;;17.08;;
68140;SDS011;54941;52.220;104.306;2023-10-31T02:45:22;28.30;;;13.88;;
68140;SDS011;54941;52.220;104.306;2023-10-31T02:47:49;33.85;;;17.63;;
68140;SDS011;54941;52.220;104.306;2023-10-31T02:50:15;31.42;;;15.20;;
68140;SDS011;54941;52.220;104.306;2023-10-31T02:52:42;32.50;;;15.18;;
68140;SDS011;54941;52.220;104.306;2023-10-31T02:55:08;35.33;;;17.38;;
68140;SDS011;54941;52.220;104.306;2023-10-31T02:57:36;28.77;;;15.13;;
68140;SDS011;54941;52.220;104.306;2023-10-31T03:00:03;31.88;;;13.80;;
68140;SDS011;54941;52.220;104.306;2023-10-31T03:02:31;34.75;;;14.65;;
68140;SDS011;54941;52.220;104.306;2023-10-31T03:04:57;37.40;;;15.05;;
68140;SDS011;54941;52.220;104.306;2023-10-31T03:07:23;31.83;;;15.05;;
68140;SDS011;54941;52.220;104.306;2023-10-31T03:09:51;29.13;;;13.60;;
68140;SDS011;54941;52.220;104.306;2023-10-31T03:12:18;26.70;;;13.43;;
68140;SDS011;54941;52.220;104.306;2023-10-31T03:14:46;27.05;;;12.15;;
68140;SDS011;54941;52.220;104.306;2023-10-31T03:17:12;27.20;;;12.60;;
68140;SDS011;54941;52.220;104.306;2023-10-31T03:19:38;34.60;;;13.38;;
68140;SDS011;54941;52.220;104.306;2023-10-31T03:22:05;22.92;;;12.27;;
68140;SDS011;54941;52.220;104.306;2023-10-31T03:24:31;31.55;;;14.30;;
68140;SDS011;54941;52.220;104.306;2023-10-31T03:26:57;35.42;;;14.55;;
68140;SDS011;54941;52.220;104.306;2023-10-31T03:29:23;31.40;;;13.02;;
68140;SDS011;54941;52.220;104.306;2023-10-31T03:31:51;29.50;;;12.30;;
68140;SDS011;54941;52.220;104.306;2023-10-31T03:34:17;32.10;;;15.07;;
68140;SDS011;54941;52.220;104.306;2023-10-31T03:36:44;35.13;;;16.48;;
68140;SDS011;54941;52.220;104.306;2023-10-31T03:39:10;31.65;;;15.15;;
68140;SDS011;54941;52.220;104.306;2023-10-31T03:41:36;33.47;;;13.63;;
68140;SDS011;54941;52.220;104.306;2023-10-31T03:44:02;29.00;;;12.82;;
68140;SDS011;54941;52.220;104.306;2023-10-31T03:46:29;29.45;;;14.50;;
68140;SDS011;54941;52.220;104.306;2023-10-31T03:48:57;33.85;;;15.05;;
68140;SDS011;54941;52.220;104.306;2023-10-31T03:51:23;30.20;;;13.20;;
68140;SDS011;54941;52.220;104.306;2023-10-31T03:53:49;26.92;;;11.32;;
68140;SDS011;54941;52.220;104.306;2023-10-31T03:56:16;28.83;;;11.80;;
68140;SDS011;54941;52.220;104.306;2023-10-31T03:58:42;29.80;;;11.98;;
68140;SDS011;54941;52.220;104.306;2023-10-31T04:01:09;27.83;;;11.43;;
68140;SDS011;54941;52.220;104.306;2023-10-31T04:03:35;28.70;;;12.05;;
68140;SDS011;54941;52.220;104.306;2023-10-31T04:06:03;27.70;;;11.30;;
68140;SDS011;54941;52.220;104.306;2023-10-31T04:08:30;28.63;;;11.70;;
68140;SDS011;54941;52.220;104.306;2023-10-31T04:10:56;36.40;;;13.23;;
68140;SDS011;54941;52.220;104.306;2023-10-31T04:13:22;30.38;;;11.80;;
68140;SDS011;54941;52.220;104.306;2023-10-31T04:15:49;26.00;;;11.60;;
68140;SDS011;54941;52.220;104.306;2023-10-31T04:18:15;26.95;;;11.55;;
68140;SDS011;54941;52.220;104.306;2023-10-31T04:20:41;24.73;;;10.68;;
68140;SDS011;54941;52.220;104.306;2023-10-31T04:23:09;23.67;;;10.63;;
68140;SDS011;54941;52.220;104.306;2023-10-31T04:25:35;28.23;;;12.10;;
68140;SDS011;54941;52.220;104.306;2023-10-31T04:28:02;31.50;;;11.75;;
68140;SDS011;54941;52.220;104.306;2023-10-31T04:30:28;33.88;;;12.70;;
68140;SDS011;54941;52.220;104.306;2023-10-31T04:32:54;29.58;;;12.23;;
68140;SDS011;54941;52.220;104.306;2023-10-31T04:35:21;21.00;;;9.95;;
68140;SDS011;54941;52.220;104.306;2023-10-31T04:37:47;21.83;;;10.55;;
68140;SDS011;54941;52.220;104.306;2023-10-31T04:40:15;22.10;;;10.57;;
68140;SDS011;54941;52.220;104.306;2023-10-31T04:42:41;23.60;;;11.32;;
68140;SDS011;54941;52.220;104.306;2023-10-31T04:45:08;28.25;;;10.30;;
68140;SDS011;54941;52.220;104.306;2023-10-31T04:47:35;24.75;;;9.32;;
68140;SDS011;54941;52.220;104.306;2023-10-31T04:50:01;27.73;;;11.15;;
68140;SDS011;54941;52.220;104.306;2023-10-31T04:52:30;21.45;;;10.65;;
68140;SDS011;54941;52.220;104.306;2023-10-31T04:54:57;19.75;;;9.77;;
68140;SDS011;54941;52.220;104.306;2023-10-31T04:57:24;21.30;;;9.32;;
68140;SDS011;54941;52.220;104.306;2023-10-31T04:59:51;18.60;;;9.25;;
68140;SDS011;54941;52.220;104.306;2023-10-31T05:02:17;24.25;;;9.52;;
68140;SDS011;54941;52.220;104.306;2023-10-31T05:04:43;21.40;;;9.88;;
68140;SDS011;54941;52.220;104.306;2023-10-31T05:07:09;22.55;;;10.85;;
68140;SDS011;54941;52.220;104.306;2023-10-31T05:09:36;19.17;;;8.82;;
68140;SDS011;54941;52.220;104.306;2023-10-31T05:12:02;19.73;;;9.07;;
68140;SDS011;54941;52.220;104.306;2023-10-31T05:14:30;18.63;;;8.85;;
68140;SDS011;54941;52.220;104.306;2023-10-31T05:16:57;19.63;;;7.85;;
68140;SDS011;54941;52.220;104.306;2023-10-31T05:19:23;20.38;;;9.18;;
68140;SDS011;54941;52.220;104.306;2023-10-31T05:21:49;18.30;;;10.30;;
68140;SDS011;54941;52.220;104.306;2023-10-31T05:24:15;19.25;;;8.57;;
68140;SDS011;54941;52.220;104.306;2023-10-31T05:26:42;21.40;;;9.57;;
68140;SDS011;54941;52.220;104.306;2023-10-31T05:29:08;19.52;;;8.93;;
68140;SDS011;54941;52.220;104.306;2023-10-31T05:31:36;17.85;;;8.68;;
68140;SDS011;54941;52.220;104.306;2023-10-31T05:34:02;19.48;;;8.50;;
68140;SDS011;54941;52.220;104.306;2023-10-31T05:36:29;19.48;;;8.23;;
68140;SDS011;54941;52.220;104.306;2023-10-31T05:38:55;23.40;;;10.35;;
68140;SDS011;54941;52.220;104.306;2023-10-31T05:41:21;17.00;;;9.40;;
68140;SDS011;54941;52.220;104.306;2023-10-31T05:43:48;17.88;;;8.05;;
68140;SDS011;54941;52.220;104.306;2023-10-31T05:46:14;20.77;;;9.27;;
68140;SDS011;54941;52.220;104.306;2023-10-31T05:48:43;17.95;;;7.30;;
68140;SDS011;54941;52.220;104.306;2023-10-31T05:51:13;19.15;;;7.95;;
68140;SDS011;54941;52.220;104.306;2023-10-31T05:53:40;16.83;;;7.50;;
68140;SDS011;54941;52.220;104.306;2023-10-31T05:56:07;20.30;;;7.82;;
68140;SDS011;54941;52.220;104.306;2023-10-31T05:58:34;18.77;;;7.70;;
68140;SDS011;54941;52.220;104.306;2023-10-31T06:01:02;17.40;;;8.00;;
68140;SDS011;54941;52.220;104.306;2023-10-31T06:03:29;20.77;;;8.88;;
68140;SDS011;54941;52.220;104.306;2023-10-31T06:05:57;17.08;;;8.35;;
68140;SDS011;54941;52.220;104.306;2023-10-31T06:08:23;23.75;;;9.23;;
68140;SDS011;54941;52.220;104.306;2023-10-31T06:10:49;18.88;;;8.00;;
68140;SDS011;54941;52.220;104.306;2023-10-31T06:13:16;16.95;;;8.27;;
68140;SDS011;54941;52.220;104.306;2023-10-31T06:15:42;19.50;;;8.68;;
68140;SDS011;54941;52.220;104.306;2023-10-31T06:18:08;14.32;;;6.68;;
68140;SDS011;54941;52.220;104.306;2023-10-31T06:20:35;17.25;;;7.47;;
68140;SDS011;54941;52.220;104.306;2023-10-31T06:23:02;20.15;;;8.85;;
68140;SDS011;54941;52.220;104.306;2023-10-31T06:25:29;18.38;;;8.48;;
68140;SDS011;54941;52.220;104.306;2023-10-31T06:27:55;16.52;;;7.80;;
68140;SDS011;54941;52.220;104.306;2023-10-31T06:30:21;18.80;;;7.78;;
68140;SDS011;54941;52.220;104.306;2023-10-31T06:32:48;16.35;;;9.65;;
68140;SDS011;54941;52.220;104.306;2023-10-31T06:35:14;17.92;;;7.65;;
68140;SDS011;54941;52.220;104.306;2023-10-31T06:37:40;17.52;;;8.55;;
68140;SDS011;54941;52.220;104.306;2023-10-31T06:40:09;27.83;;;12.43;;
68140;SDS011;54941;52.220;104.306;2023-10-31T06:42:35;17.60;;;7.50;;
68140;SDS011;54941;52.220;104.306;2023-10-31T06:45:02;16.35;;;7.40;;
68140;SDS011;54941;52.220;104.306;2023-10-31T06:47:32;22.63;;;7.45;;
68140;SDS011;54941;52.220;104.306;2023-10-31T06:49:58;15.90;;;7.80;;
68140;SDS011;54941;52.220;104.306;2023-10-31T06:52:24;16.05;;;7.38;;
68140;SDS011;54941;52.220;104.306;2023-10-31T06:54:51;20.90;;;9.65;;
68140;SDS011;54941;52.220;104.306;2023-10-31T06:57:18;15.55;;;7.13;;
68140;SDS011;54941;52.220;104.306;2023-10-31T06:59:45;20.33;;;9.00;;
68140;SDS011;54941;52.220;104.306;2023-10-31T07:02:11;19.83;;;9.93;;
68140;SDS011;54941;52.220;104.306;2023-10-31T07:04:38;15.05;;;7.30;;
68140;SDS011;54941;52.220;104.306;2023-10-31T07:07:04;17.88;;;7.57;;
68140;SDS011;54941;52.220;104.306;2023-10-31T07:09:30;15.75;;;8.13;;
68140;SDS011;54941;52.220;104.306;2023-10-31T07:11:56;16.38;;;7.93;;
68140;SDS011;54941;52.220;104.306;2023-10-31T07:14:24;17.02;;;8.38;;
68140;SDS011;54941;52.220;104.306;2023-10-31T07:16:51;19.65;;;8.20;;
68140;SDS011;54941;52.220;104.306;2023-10-31T07:19:17;19.75;;;9.30;;
68140;SDS011;54941;52.220;104.306;2023-10-31T07:21:43;17.73;;;7.97;;
68140;SDS011;54941;52.220;104.306;2023-10-31T07:24:09;18.38;;;8.02;;
68140;SDS011;54941;52.220;104.306;2023-10-31T07:26:36;17.08;;;8.60;;
68140;SDS011;54941;52.220;104.306;2023-10-31T07:29:02;18.58;;;8.75;;
68140;SDS011;54941;52.220;104.306;2023-10-31T07:31:30;18.10;;;8.30;;
68140;SDS011;54941;52.220;104.306;2023-10-31T07:33:56;22.67;;;9.48;;
68140;SDS011;54941;52.220;104.306;2023-10-31T07:36:22;18.45;;;9.00;;
68140;SDS011;54941;52.220;104.306;2023-10-31T07:38:48;16.08;;;9.45;;
68140;SDS011;54941;52.220;104.306;2023-10-31T07:41:15;20.17;;;8.75;;
68140;SDS011;54941;52.220;104.306;2023-10-31T07:43:41;19.48;;;9.60;;
68140;SDS011;54941;52.220;104.306;2023-10-31T07:46:07;16.17;;;7.63;;
68140;SDS011;54941;52.220;104.306;2023-10-31T07:48:35;16.70;;;9.23;;
68140;SDS011;54941;52.220;104.306;2023-10-31T07:51:01;17.05;;;8.75;;
68140;SDS011;54941;52.220;104.306;2023-10-31T07:53:28;23.95;;;11.40;;
68140;SDS011;54941;52.220;104.306;2023-10-31T07:55:54;19.52;;;10.00;;
68140;SDS011;54941;52.220;104.306;2023-10-31T07:58:20;22.50;;;10.32;;
68140;SDS011;54941;52.220;104.306;2023-10-31T08:00:46;17.90;;;9.68;;
68140;SDS011;54941;52.220;104.306;2023-10-31T08:03:13;23.50;;;9.45;;
68140;SDS011;54941;52.220;104.306;2023-10-31T08:05:40;16.45;;;8.15;;
68140;SDS011;54941;52.220;104.306;2023-10-31T08:08:07;18.92;;;8.15;;
68140;SDS011;54941;52.220;104.306;2023-10-31T08:10:33;17.95;;;8.80;;
68140;SDS011;54941;52.220;104.306;2023-10-31T08:12:59;20.90;;;9.98;;
68140;SDS011;54941;52.220;104.306;2023-10-31T08:15:26;18.25;;;9.77;;
68140;SDS011;54941;52.220;104.306;2023-10-31T08:17:52;19.70;;;10.18;;
68140;SDS011;54941;52.220;104.306;2023-10-31T08:20:18;23.10;;;10.00;;
68140;SDS011;54941;52.220;104.306;2023-10-31T08:22:46;17.45;;;9.25;;
68140;SDS011;54941;52.220;104.306;2023-10-31T08:25:12;21.55;;;10.05;;
68140;SDS011;54941;52.220;104.306;2023-10-31T08:27:39;28.60;;;11.27;;
68140;SDS011;54941;52.220;104.306;2023-10-31T08:30:05;26.10;;;12.30;;
68140;SDS011;54941;52.220;104.306;2023-10-31T08:32:33;21.13;;;12.50;;
68140;SDS011;54941;52.220;104.306;2023-10-31T08:34:59;22.90;;;11.07;;
68140;SDS011;54941;52.220;104.306;2023-10-31T08:37:25;27.48;;;12.88;;
68140;SDS011;54941;52.220;104.306;2023-10-31T08:39:53;22.40;;;12.27;;
68140;SDS011;54941;52.220;104.306;2023-10-31T08:42:19;30.25;;;13.40;;
68140;SDS011;54941;52.220;104.306;2023-10-31T08:44:46;23.58;;;11.90;;
68140;SDS011;54941;52.220;104.306;2023-10-31T08:47:12;25.63;;;12.55;;
68140;SDS011;54941;52.220;104.306;2023-10-31T08:49:38;33.60;;;15.48;;
68140;SDS011;54941;52.220;104.306;2023-10-31T08:52:05;23.17;;;10.82;;
68140;SDS011;54941;52.220;104.306;2023-10-31T08:54:31;27.13;;;11.32;;
68140;SDS011;54941;52.220;104.306;2023-10-31T08:56:59;21.67;;;10.80;;
68140;SDS011;54941;52.220;104.306;2023-10-31T08:59:25;29.88;;;11.98;;
68140;SDS011;54941;52.220;104.306;2023-10-31T09:01:51;20.77;;;11.60;;
68140;SDS011;54941;52.220;104.306;2023-10-31T09:04:20;24.73;;;12.65;;
68140;SDS011;54941;52.220;104.306;2023-10-31T09:06:46;27.95;;;11.52;;
68140;SDS011;54941;52.220;104.306;2023-10-31T09:09:12;21.65;;;10.73;;
68140;SDS011;54941;52.220;104.306;2023-10-31T09:11:39;23.42;;;11.98;;
68140;SDS011;54941;52.220;104.306;2023-10-31T09:14:06;25.20;;;13.35;;
68140;SDS011;54941;52.220;104.306;2023-10-31T09:16:33;28.63;;;12.88;;
68140;SDS011;54941;52.220;104.306;2023-10-31T09:18:59;23.55;;;13.68;;
68140;SDS011;54941;52.220;104.306;2023-10-31T09:21:25;25.80;;;12.18;;
68140;SDS011;54941;52.220;104.306;2023-10-31T09:23:54;26.40;;;13.50;;
68140;SDS011;54941;52.220;104.306;2023-10-31T09:26:21;21.90;;;12.30;;
68140;SDS011;54941;52.220;104.306;2023-10-31T09:28:47;24.48;;;13.75;;
68140;SDS011;54941;52.220;104.306;2023-10-31T09:31:14;27.00;;;14.80;;
68140;SDS011;54941;52.220;104.306;2023-10-31T09:33:41;25.33;;;12.75;;
68140;SDS011;54941;52.220;104.306;2023-10-31T09:36:08;23.70;;;13.82;;
68140;SDS011;54941;52.220;104.306;2023-10-31T09:38:34;26.65;;;13.15;;
68140;SDS011;54941;52.220;104.306;2023-10-31T09:41:00;23.38;;;12.32;;
68140;SDS011;54941;52.220;104.306;2023-10-31T09:43:27;27.83;;;14.10;;
68140;SDS011;54941;52.220;104.306;2023-10-31T09:45:53;23.73;;;12.32;;
68140;SDS011;54941;52.220;104.306;2023-10-31T09:48:21;25.73;;;12.65;;
68140;SDS011;54941;52.220;104.306;2023-10-31T09:50:47;23.00;;;13.90;;
68140;SDS011;54941;52.220;104.306;2023-10-31T09:53:15;27.70;;;14.38;;
68140;SDS011;54941;52.220;104.306;2023-10-31T09:55:42;27.20;;;13.98;;
68140;SDS011;54941;52.220;104.306;2023-10-31T09:58:08;23.38;;;13.63;;
68140;SDS011;54941;52.220;104.306;2023-10-31T10:00:35;26.85;;;12.85;;
68140;SDS011;54941;52.220;104.306;2023-10-31T10:03:03;27.02;;;14.80;;
68140;SDS011;54941;52.220;104.306;2023-10-31T10:05:31;27.42;;;14.18;;
68140;SDS011;54941;52.220;104.306;2023-10-31T10:08:00;28.33;;;14.60;;
68140;SDS011;54941;52.220;104.306;2023-10-31T10:10:26;24.17;;;12.80;;
68140;SDS011;54941;52.220;104.306;2023-10-31T10:12:52;28.65;;;15.13;;
68140;SDS011;54941;52.220;104.306;2023-10-31T10:15:19;26.15;;;13.32;;
68140;SDS011;54941;52.220;104.306;2023-10-31T10:17:48;23.58;;;14.93;;
68140;SDS011;54941;52.220;104.306;2023-10-31T10:20:15;26.65;;;14.38;;
68140;SDS011;54941;52.220;104.306;2023-10-31T10:22:42;22.05;;;12.82;;
68140;SDS011;54941;52.220;104.306;2023-10-31T10:25:09;24.63;;;12.55;;
68140;SDS011;54941;52.220;104.306;2023-10-31T10:27:37;21.02;;;12.57;;
68140;SDS011;54941;52.220;104.306;2023-10-31T10:30:03;21.33;;;12.30;;
68140;SDS011;54941;52.220;104.306;2023-10-31T10:32:31;23.55;;;15.35;;
68140;SDS011;54941;52.220;104.306;2023-10-31T10:34:57;28.85;;;15.30;;
68140;SDS011;54941;52.220;104.306;2023-10-31T10:37:24;24.48;;;13.05;;
68140;SDS011;54941;52.220;104.306;2023-10-31T10:39:53;28.23;;;13.50;;
68140;SDS011;54941;52.220;104.306;2023-10-31T10:42:19;27.75;;;14.68;;
68140;SDS011;54941;52.220;104.306;2023-10-31T10:44:56;26.83;;;14.45;;
68140;SDS011;54941;52.220;104.306;2023-10-31T10:47:26;24.00;;;12.93;;
68140;SDS011;54941;52.220;104.306;2023-10-31T10:49:53;23.00;;;12.00;;
68140;SDS011;54941;52.220;104.306;2023-10-31T10:52:26;26.52;;;14.52;;
68140;SDS011;54941;52.220;104.306;2023-10-31T10:54:57;26.77;;;13.68;;
68140;SDS011;54941;52.220;104.306;2023-10-31T10:57:31;22.90;;;12.27;;
68140;SDS011;54941;52.220;104.306;2023-10-31T11:00:03;21.15;;;12.52;;
68140;SDS011;54941;52.220;104.306;2023-10-31T11:02:32;21.38;;;11.68;;
68140;SDS011;54941;52.220;104.306;2023-10-31T11:05:00;25.67;;;13.25;;
68140;SDS011;54941;52.220;104.306;2023-10-31T11:07:27;22.08;;;12.55;;
68140;SDS011;54941;52.220;104.306;2023-10-31T11:09:56;22.15;;;12.18;;
68140;SDS011;54941;52.220;104.306;2023-10-31T11:12:23;25.10;;;12.70;;
68140;SDS011;54941;52.220;104.306;2023-10-31T11:14:51;20.60;;;12.20;;
68140;SDS011;54941;52.220;104.306;2023-10-31T11:17:20;21.58;;;12.65;;
68140;SDS011;54941;52.220;104.306;2023-10-31T11:19:51;24.92;;;13.07;;
68140;SDS011;54941;52.220;104.306;2023-10-31T11:22:20;23.40;;;12.65;;
68140;SDS011;54941;52.220;104.306;2023-10-31T11:24:47;24.65;;;13.88;;
68140;SDS011;54941;52.220;104.306;2023-10-31T11:27:17;25.70;;;13.40;;
68140;SDS011;54941;52.220;104.306;2023-10-31T11:29:43;24.40;;;13.10;;
68140;SDS011;54941;52.220;104.306;2023-10-31T11:32:10;25.63;;;13.82;;
68140;SDS011;54941;52.220;104.306;2023-10-31T11:34:37;24.60;;;13.15;;
68140;SDS011;54941;52.220;104.306;2023-10-31T11:37:23;24.45;;;13.15;;
68140;SDS011;54941;52.220;104.306;2023-10-31T11:42:43;28.83;;;13.68;;
68140;SDS011;54941;52.220;104.306;2023-10-31T11:45:12;27.90;;;15.90;;
68140;SDS011;54941;52.220;104.306;2023-10-31T11:47:47;36.10;;;16.40;;
68140;SDS011;54941;52.220;104.306;2023-10-31T11:50:14;27.23;;;14.75;;
68140;SDS011;54941;52.220;104.306;2023-10-31T11:52:41;33.63;;;15.20;;
68140;SDS011;54941;52.220;104.306;2023-10-31T11:55:08;28.02;;;13.20;;
68140;SDS011;54941;52.220;104.306;2023-10-31T11:57:35;29.85;;;14.07;;
68140;SDS011;54941;52.220;104.306;2023-10-31T12:00:03;26.08;;;13.95;;
68140;SDS011;54941;52.220;104.306;2023-10-31T12:02:30;24.40;;;14.18;;
68140;SDS011;54941;52.220;104.306;2023-10-31T12:05:06;31.35;;;16.23;;
68140;SDS011;54941;52.220;104.306;2023-10-31T12:07:41;26.45;;;13.52;;
68140;SDS011;54941;52.220;104.306;2023-10-31T12:10:08;26.23;;;14.23;;
68140;SDS011;54941;52.220;104.306;2023-10-31T12:12:34;23.45;;;14.23;;
68140;SDS011;54941;52.220;104.306;2023-10-31T12:15:05;27.08;;;14.68;;
68140;SDS011;54941;52.220;104.306;2023-10-31T12:17:32;24.50;;;13.10;;
68140;SDS011;54941;52.220;104.306;2023-10-31T12:20:04;24.52;;;13.70;;
68140;SDS011;54941;52.220;104.306;2023-10-31T12:22:31;22.23;;;13.85;;
68140;SDS011;54941;52.220;104.306;2023-10-31T12:25:00;26.33;;;13.07;;
68140;SDS011;54941;52.220;104.306;2023-10-31T12:27:42;24.15;;;14.88;;
68140;SDS011;54941;52.220;104.306;2023-10-31T12:30:10;27.00;;;14.23;;
68140;SDS011;54941;52.220;104.306;2023-10-31T12:32:37;31.73;;;16.05;;
68140;SDS011;54941;52.220;104.306;2023-10-31T12:35:05;27.50;;;14.52;;
68140;SDS011;54941;52.220;104.306;2023-10-31T12:37:32;28.02;;;16.50;;
68140;SDS011;54941;52.220;104.306;2023-10-31T12:40:00;28.88;;;16.30;;
68140;SDS011;54941;52.220;104.306;2023-10-31T12:42:29;29.10;;;15.63;;
68140;SDS011;54941;52.220;104.306;2023-10-31T12:44:57;28.35;;;17.40;;
68140;SDS011;54941;52.220;104.306;2023-10-31T12:47:25;31.88;;;16.55;;
68140;SDS011;54941;52.220;104.306;2023-10-31T12:50:05;32.00;;;16.63;;
68140;SDS011;54941;52.220;104.306;2023-10-31T12:52:44;31.38;;;16.15;;
68140;SDS011;54941;52.220;104.306;2023-10-31T12:55:12;33.85;;;17.63;;
68140;SDS011;54941;52.220;104.306;2023-10-31T12:57:39;33.67;;;17.00;;
68140;SDS011;54941;52.220;104.306;2023-10-31T13:00:06;40.22;;;17.65;;
68140;SDS011;54941;52.220;104.306;2023-10-31T13:02:34;29.73;;;16.27;;
68140;SDS011;54941;52.220;104.306;2023-10-31T13:05:07;31.83;;;17.08;;
68140;SDS011;54941;52.220;104.306;2023-10-31T13:07:34;33.60;;;17.42;;
68140;SDS011;54941;52.220;104.306;2023-10-31T13:10:01;32.25;;;18.30;;
68140;SDS011;54941;52.220;104.306;2023-10-31T13:12:33;32.17;;;17.75;;
68140;SDS011;54941;52.220;104.306;2023-10-31T13:14:59;31.90;;;17.52;;
68140;SDS011;54941;52.220;104.306;2023-10-31T13:17:25;30.48;;;16.35;;
68140;SDS011;54941;52.220;104.306;2023-10-31T13:19:53;29.48;;;15.05;;
68140;SDS011;54941;52.220;104.306;2023-10-31T13:22:19;32.58;;;17.02;;
68140;SDS011;54941;52.220;104.306;2023-10-31T13:24:46;29.83;;;18.35;;
68140;SDS011;54941;52.220;104.306;2023-10-31T13:27:12;31.73;;;18.38;;
68140;SDS011;54941;52.220;104.306;2023-10-31T13:29:38;33.38;;;18.02;;
68140;SDS011;54941;52.220;104.306;2023-10-31T13:32:05;37.47;;;20.50;;
68140;SDS011;54941;52.220;104.306;2023-10-31T13:34:31;38.25;;;20.45;;
68140;SDS011;54941;52.220;104.306;2023-10-31T13:36:59;35.28;;;20.23;;
68140;SDS011;54941;52.220;104.306;2023-10-31T13:39:25;38.78;;;21.00;;
68140;SDS011;54941;52.220;104.306;2023-10-31T13:41:51;37.28;;;21.50;;
68140;SDS011;54941;52.220;104.306;2023-10-31T13:44:18;41.95;;;22.08;;
68140;SDS011;54941;52.220;104.306;2023-10-31T13:46:44;33.45;;;17.75;;
68140;SDS011;54941;52.220;104.306;2023-10-31T13:49:10;33.92;;;17.95;;
68140;SDS011;54941;52.220;104.306;2023-10-31T13:51:37;36.35;;;20.63;;
68140;SDS011;54941;52.220;104.306;2023-10-31T13:54:05;39.67;;;19.15;;
68140;SDS011;54941;52.220;104.306;2023-10-31T13:56:31;36.72;;;20.90;;
68140;SDS011;54941;52.220;104.306;2023-10-31T13:58:57;32.85;;;16.95;;
68140;SDS011;54941;52.220;104.306;2023-10-31T14:01:23;35.22;;;18.20;;
68140;SDS011;54941;52.220;104.306;2023-10-31T14:03:49;28.63;;;15.85;;